sensor_id;sensor_type;location;lat;lon;timestamp;pressure;altitude;pressure_sealevel;temperature;humidity
64243;BME280;50573;51.512;5.386;2023-02-15T00:04:26;102656.78;;;1.71;100.00
64243;BME280;50573;51.512;5.386;2023-02-15T00:14:49;102642.31;;;1.64;100.00
64243;BME280;50573;51.512;5.386;2023-02-15T00:24:52;102631.28;;;1.57;100.00
64243;BME280;50573;51.512;5.386;2023-02-15T00:34:56;102620.25;;;1.50;100.00
64243;BME280;50573;51.512;5.386;2023-02-15T00:44:59;102615.91;;;1.36;100.00
64243;BME280;50573;51.512;5.386;2023-02-15T00:55:05;102608.56;;;1.25;100.00
64243;BME280;50573;51.512;5.386;2023-02-15T01:05:08;102595.53;;;1.15;100.00
64243;BME280;50573;51.512;5.386;2023-02-15T01:15:12;102589.56;;;1.09;100.00
64243;BME280;50573;51.512;5.386;2023-02-15T01:25:16;102574.63;;;1.00;100.00
64243;BME280;50573;51.512;5.386;2023-02-15T01:35:20;102576.38;;;0.96;100.00
64243;BME280;50573;51.512;5.386;2023-02-15T01:45:25;102552.31;;;0.79;100.00
64243;BME280;50573;51.512;5.386;2023-02-15T01:55:33;102548.75;;;0.66;100.00
64243;BME280;50573;51.512;5.386;2023-02-15T02:05:38;102551.31;;;0.54;100.00
64243;BME280;50573;51.512;5.386;2023-02-15T02:15:50;102536.84;;;0.47;100.00
64243;BME280;50573;51.512;5.386;2023-02-15T02:26:30;102536.22;;;0.41;100.00
64243;BME280;50573;51.512;5.386;2023-02-15T02:36:49;102525.84;;;0.31;100.00
64243;BME280;50573;51.512;5.386;2023-02-15T02:46:58;102512.78;;;0.30;100.00
64243;BME280;50573;51.512;5.386;2023-02-15T02:57:07;102515.63;;;0.25;100.00
64243;BME280;50573;51.512;5.386;2023-02-15T03:07:13;102498.16;;;0.19;100.00
64243;BME280;50573;51.512;5.386;2023-02-15T03:17:27;102489.66;;;0.17;100.00
64243;BME280;50573;51.512;5.386;2023-02-15T03:27:37;102474.38;;;0.17;100.00
64243;BME280;50573;51.512;5.386;2023-02-15T03:37:48;102466.88;;;0.40;100.00
64243;BME280;50573;51.512;5.386;2023-02-15T03:47:54;102465.84;;;0.53;100.00
64243;BME280;50573;51.512;5.386;2023-02-15T03:58:00;102467.47;;;0.45;100.00
64243;BME280;50573;51.512;5.386;2023-02-15T04:08:22;102452.25;;;0.29;100.00
64243;BME280;50573;51.512;5.386;2023-02-15T04:18:48;102461.78;;;0.18;100.00
64243;BME280;50573;51.512;5.386;2023-02-15T04:29:08;102458.63;;;0.16;100.00
64243;BME280;50573;51.512;5.386;2023-02-15T04:39:14;102456.44;;;0.09;100.00
64243;BME280;50573;51.512;5.386;2023-02-15T04:49:17;102452.81;;;0.05;100.00
64243;BME280;50573;51.512;5.386;2023-02-15T04:59:21;102422.66;;;0.17;100.00
64243;BME280;50573;51.512;5.386;2023-02-15T05:09:24;102419.22;;;0.45;100.00
64243;BME280;50573;51.512;5.386;2023-02-15T05:19:29;102421.66;;;0.59;100.00
64243;BME280;50573;51.512;5.386;2023-02-15T05:29:32;102427.69;;;0.56;100.00
64243;BME280;50573;51.512;5.386;2023-02-15T05:39:36;102421.72;;;0.50;100.00
64243;BME280;50573;51.512;5.386;2023-02-15T05:49:39;102424.31;;;0.38;100.00
64243;BME280;50573;51.512;5.386;2023-02-15T05:59:43;102421.41;;;0.23;100.00
64243;BME280;50573;51.512;5.386;2023-02-15T06:09:46;102420.47;;;0.19;100.00
64243;BME280;50573;51.512;5.386;2023-02-15T06:19:51;102429.34;;;0.40;100.00
64243;BME280;50573;51.512;5.386;2023-02-15T06:29:54;102428.00;;;0.54;100.00
64243;BME280;50573;51.512;5.386;2023-02-15T06:39:58;102426.94;;;0.47;100.00
64243;BME280;50573;51.512;5.386;2023-02-15T06:50:05;102419.75;;;0.39;100.00
64243;BME280;50573;51.512;5.386;2023-02-15T07:00:11;102406.03;;;0.40;100.00
64243;BME280;50573;51.512;5.386;2023-02-15T07:10:15;102387.00;;;0.54;100.00
64243;BME280;50573;51.512;5.386;2023-02-15T07:20:22;102397.16;;;0.69;100.00
64243;BME280;50573;51.512;5.386;2023-02-15T07:30:25;102387.75;;;0.83;100.00
64243;BME280;50573;51.512;5.386;2023-02-15T07:40:30;102382.34;;;1.04;100.00
64243;BME280;50573;51.512;5.386;2023-02-15T07:50:33;102388.28;;;1.30;100.00
64243;BME280;50573;51.512;5.386;2023-02-15T08:00:38;102383.56;;;1.60;100.00
64243;BME280;50573;51.512;5.386;2023-02-15T08:10:58;102376.69;;;1.83;100.00
64243;BME280;50573;51.512;5.386;2023-02-15T08:21:20;102374.56;;;2.12;100.00
64243;BME280;50573;51.512;5.386;2023-02-15T08:31:26;102376.97;;;2.53;100.00
64243;BME280;50573;51.512;5.386;2023-02-15T08:41:32;102373.63;;;2.96;100.00
64243;BME280;50573;51.512;5.386;2023-02-15T08:51:37;102371.06;;;3.43;100.00
64243;BME280;50573;51.512;5.386;2023-02-15T09:01:43;102361.19;;;3.78;100.00
64243;BME280;50573;51.512;5.386;2023-02-15T09:11:48;102359.94;;;4.22;100.00
64243;BME280;50573;51.512;5.386;2023-02-15T09:22:00;102350.53;;;4.66;99.47
64243;BME280;50573;51.512;5.386;2023-02-15T09:32:03;102342.84;;;5.06;95.80
64243;BME280;50573;51.512;5.386;2023-02-15T09:42:35;102333.53;;;5.45;94.04
64243;BME280;50573;51.512;5.386;2023-02-15T09:52:56;102349.91;;;5.98;90.30
64243;BME280;50573;51.512;5.386;2023-02-15T10:03:24;102351.34;;;6.44;88.79
64243;BME280;50573;51.512;5.386;2023-02-15T10:13:38;102353.16;;;6.95;84.91
64243;BME280;50573;51.512;5.386;2023-02-15T10:24:01;102360.28;;;7.44;82.22
64243;BME280;50573;51.512;5.386;2023-02-15T10:34:15;102361.09;;;7.91;80.47
64243;BME280;50573;51.512;5.386;2023-02-15T10:44:32;102352.16;;;8.34;77.67
64243;BME280;50573;51.512;5.386;2023-02-15T10:54:45;102343.06;;;8.81;77.42
64243;BME280;50573;51.512;5.386;2023-02-15T11:04:58;102342.06;;;9.35;74.25
64243;BME280;50573;51.512;5.386;2023-02-15T11:15:15;102337.03;;;9.93;70.29
64243;BME280;50573;51.512;5.386;2023-02-15T11:25:24;102328.06;;;10.35;70.40
64243;BME280;50573;51.512;5.386;2023-02-15T11:35:31;102318.28;;;10.51;67.49
64243;BME280;50573;51.512;5.386;2023-02-15T11:45:39;102299.84;;;10.87;67.66
64243;BME280;50573;51.512;5.386;2023-02-15T11:55:45;102284.94;;;11.05;66.42
64243;BME280;50573;51.512;5.386;2023-02-15T12:05:52;102284.34;;;11.32;66.22
64243;BME280;50573;51.512;5.386;2023-02-15T12:15:57;102272.75;;;11.72;64.96
64243;BME280;50573;51.512;5.386;2023-02-15T12:26:03;102243.34;;;11.90;61.73
64243;BME280;50573;51.512;5.386;2023-02-15T12:36:09;102245.94;;;12.00;61.60
64243;BME280;50573;51.512;5.386;2023-02-15T12:46:21;102244.47;;;12.26;60.50
64243;BME280;50573;51.512;5.386;2023-02-15T12:56:26;102234.06;;;12.47;59.60
64243;BME280;50573;51.512;5.386;2023-02-15T13:06:33;102222.91;;;12.65;59.82
64243;BME280;50573;51.512;5.386;2023-02-15T13:16:38;102217.31;;;12.99;59.82
64243;BME280;50573;51.512;5.386;2023-02-15T13:26:44;102203.56;;;13.06;58.59
64243;BME280;50573;51.512;5.386;2023-02-15T13:36:52;102202.53;;;12.96;59.10
64243;BME280;50573;51.512;5.386;2023-02-15T13:47:09;102194.31;;;12.96;59.45
64243;BME280;50573;51.512;5.386;2023-02-15T13:57:35;102184.97;;;13.20;59.16
64243;BME280;50573;51.512;5.386;2023-02-15T14:07:54;102203.66;;;13.48;58.77
64243;BME280;50573;51.512;5.386;2023-02-15T14:18:11;102206.03;;;13.23;59.07
64243;BME280;50573;51.512;5.386;2023-02-15T14:28:21;102209.19;;;13.22;60.40
64243;BME280;50573;51.512;5.386;2023-02-15T14:38:43;102202.25;;;12.87;60.80
64243;BME280;50573;51.512;5.386;2023-02-15T14:48:50;102196.78;;;12.87;59.93
64243;BME280;50573;51.512;5.386;2023-02-15T14:59:00;102193.09;;;12.74;60.23
64243;BME280;50573;51.512;5.386;2023-02-15T15:09:19;102203.84;;;12.58;60.85
64243;BME280;50573;51.512;5.386;2023-02-15T15:41:17;102189.53;;;12.20;63.31
64243;BME280;50573;51.512;5.386;2023-02-15T15:51:27;102182.69;;;12.05;64.41
64243;BME280;50573;51.512;5.386;2023-02-15T16:01:38;102170.13;;;11.78;65.73
64243;BME280;50573;51.512;5.386;2023-02-15T16:11:43;102167.97;;;11.59;67.05
64243;BME280;50573;51.512;5.386;2023-02-15T16:21:48;102170.16;;;11.34;68.12
64243;BME280;50573;51.512;5.386;2023-02-15T16:31:58;102172.34;;;11.05;68.84
64243;BME280;50573;51.512;5.386;2023-02-15T16:42:03;102172.13;;;10.82;69.21
64243;BME280;50573;51.512;5.386;2023-02-15T16:52:07;102177.75;;;10.54;70.06
64243;BME280;50573;51.512;5.386;2023-02-15T17:02:18;102179.13;;;10.04;72.14
64243;BME280;50573;51.512;5.386;2023-02-15T17:12:45;102169.88;;;9.80;73.06
64243;BME280;50573;51.512;5.386;2023-02-15T17:22:50;102178.09;;;9.52;74.10
64243;BME280;50573;51.512;5.386;2023-02-15T17:32:57;102178.09;;;9.31;75.00
64243;BME280;50573;51.512;5.386;2023-02-15T17:43:01;102167.25;;;9.10;76.26
64243;BME280;50573;51.512;5.386;2023-02-15T17:53:08;102174.25;;;9.07;76.98
64243;BME280;50573;51.512;5.386;2023-02-15T18:03:13;102169.56;;;8.87;78.76
64243;BME280;50573;51.512;5.386;2023-02-15T18:13:33;102177.31;;;8.67;80.03
64243;BME280;50573;51.512;5.386;2023-02-15T18:23:38;102187.72;;;8.40;79.99
64243;BME280;50573;51.512;5.386;2023-02-15T18:33:44;102208.84;;;8.03;81.32
64243;BME280;50573;51.512;5.386;2023-02-15T18:43:51;102193.25;;;7.83;83.21
64243;BME280;50573;51.512;5.386;2023-02-15T18:53:54;102197.84;;;7.75;86.11
64243;BME280;50573;51.512;5.386;2023-02-15T19:03:59;102198.22;;;7.74;85.59
64243;BME280;50573;51.512;5.386;2023-02-15T19:14:02;102207.22;;;7.88;85.82
64243;BME280;50573;51.512;5.386;2023-02-15T19:24:12;102211.09;;;7.87;85.36
64243;BME280;50573;51.512;5.386;2023-02-15T19:34:18;102208.78;;;7.89;84.93
64243;BME280;50573;51.512;5.386;2023-02-15T19:44:22;102212.22;;;7.86;85.15
64243;BME280;50573;51.512;5.386;2023-02-15T19:54:28;102210.63;;;7.78;85.34
64243;BME280;50573;51.512;5.386;2023-02-15T20:04:33;102193.97;;;7.80;85.13
64243;BME280;50573;51.512;5.386;2023-02-15T20:14:37;102196.69;;;7.80;85.10
64243;BME280;50573;51.512;5.386;2023-02-15T20:24:44;102197.84;;;7.75;85.69
64243;BME280;50573;51.512;5.386;2023-02-15T20:34:47;102209.53;;;7.86;85.16
64243;BME280;50573;51.512;5.386;2023-02-15T20:44:52;102205.66;;;7.87;85.69
64243;BME280;50573;51.512;5.386;2023-02-15T20:54:55;102188.97;;;7.85;85.99
64243;BME280;50573;51.512;5.386;2023-02-15T21:04:59;102195.56;;;7.88;86.18
64243;BME280;50573;51.512;5.386;2023-02-15T21:15:24;102192.84;;;7.81;86.87
64243;BME280;50573;51.512;5.386;2023-02-15T21:25:31;102188.56;;;7.76;87.55
64243;BME280;50573;51.512;5.386;2023-02-15T21:35:35;102176.84;;;7.65;87.71
64243;BME280;50573;51.512;5.386;2023-02-15T21:45:40;102179.94;;;7.60;88.04
64243;BME280;50573;51.512;5.386;2023-02-15T21:56:02;102182.53;;;7.46;88.44
64243;BME280;50573;51.512;5.386;2023-02-15T22:06:11;102191.25;;;7.22;89.61
64243;BME280;50573;51.512;5.386;2023-02-15T22:16:15;102180.28;;;7.04;90.56
64243;BME280;50573;51.512;5.386;2023-02-15T22:26:22;102185.50;;;6.83;91.51
64243;BME280;50573;51.512;5.386;2023-02-15T22:36:28;102186.09;;;6.66;92.51
64243;BME280;50573;51.512;5.386;2023-02-15T22:46:33;102179.84;;;6.59;92.42
64243;BME280;50573;51.512;5.386;2023-02-15T22:56:39;102179.75;;;6.52;92.89
64243;BME280;50573;51.512;5.386;2023-02-15T23:06:44;102188.50;;;6.38;93.30
64243;BME280;50573;51.512;5.386;2023-02-15T23:16:47;102187.91;;;6.19;93.82
64243;BME280;50573;51.512;5.386;2023-02-15T23:26:52;102189.28;;;6.06;94.52
64243;BME280;50573;51.512;5.386;2023-02-15T23:36:55;102179.00;;;5.89;95.03
64243;BME280;50573;51.512;5.386;2023-02-15T23:47:00;102169.69;;;5.86;95.40
64243;BME280;50573;51.512;5.386;2023-02-15T23:57:03;102182.66;;;5.77;95.02
